createdAt,value
2022-12-08T00:01:49.722Z,8.60
2022-12-08T00:04:19.200Z,9.07
2022-12-08T00:07:04.953Z,8.80
2022-12-08T00:09:41.008Z,8.68
2022-12-08T00:12:09.965Z,9.15
2022-12-08T00:14:43.018Z,9.10
2022-12-08T00:17:12.274Z,9.55
2022-12-08T00:19:42.533Z,8.85
2022-12-08T00:22:13.384Z,9.05
2022-12-08T00:24:42.142Z,9.25
2022-12-08T00:27:11.005Z,8.95
2022-12-08T00:29:38.308Z,9.23
2022-12-08T00:34:36.773Z,9.32
2022-12-08T00:37:03.729Z,8.90
2022-12-08T00:39:33.538Z,9.00
2022-12-08T00:42:14.774Z,9.30
2022-12-08T00:44:46.115Z,9.65
2022-12-08T00:47:14.385Z,8.68
2022-12-08T00:49:44.835Z,9.10
2022-12-08T00:52:14.212Z,9.50
2022-12-08T00:54:43.293Z,9.60
2022-12-08T00:57:10.194Z,9.10
2022-12-08T01:02:04.416Z,8.90
2022-12-08T01:04:36.100Z,8.60
2022-12-08T01:07:03.343Z,9.27
2022-12-08T01:11:59.927Z,8.50
2022-12-08T01:16:56.207Z,9.45
2022-12-08T01:19:23.521Z,8.65
2022-12-08T01:26:50.975Z,8.40
2022-12-08T01:29:20.513Z,9.23
2022-12-08T01:31:47.396Z,9.68
2022-12-08T01:34:16.861Z,9.70
2022-12-08T01:36:44.573Z,9.38
2022-12-08T01:39:16.451Z,10.43
2022-12-08T01:41:45.583Z,10.07
2022-12-08T01:44:15.064Z,9.80
2022-12-08T01:46:48.510Z,10.50
2022-12-08T01:49:34.123Z,10.40
2022-12-08T01:52:21.176Z,9.43
2022-12-08T01:55:01.484Z,9.95
2022-12-08T01:57:37.599Z,9.88
2022-12-08T02:00:11.361Z,10.60
2022-12-08T02:02:58.964Z,9.93
2022-12-08T02:05:34.799Z,10.93
2022-12-08T02:08:06.834Z,10.30
2022-12-08T02:10:38.631Z,9.85
2022-12-08T02:13:09.243Z,10.57
2022-12-08T02:15:45.515Z,10.32
2022-12-08T02:18:30.431Z,10.57
2022-12-08T02:21:11.381Z,9.90
2022-12-08T02:23:41.334Z,10.23
2022-12-08T02:26:25.941Z,9.55
2022-12-08T02:29:11.400Z,10.50
2022-12-08T02:32:11.775Z,9.98
2022-12-08T02:34:47.420Z,10.30
2022-12-08T02:37:35.808Z,9.65
2022-12-08T02:40:25.136Z,10.18
2022-12-08T02:43:07.612Z,10.00
2022-12-08T02:45:57.403Z,9.32
2022-12-08T02:48:28.210Z,8.95
2022-12-08T02:50:57.663Z,10.55
2022-12-08T02:53:30.486Z,9.93
2022-12-08T02:56:16.242Z,10.48
2022-12-08T02:58:51.281Z,11.02
2022-12-08T03:01:43.320Z,11.40
2022-12-08T03:04:18.824Z,10.90
2022-12-08T03:06:51.694Z,11.00
2022-12-08T03:09:41.148Z,11.38
2022-12-08T03:12:24.788Z,11.02
2022-12-08T03:14:58.673Z,9.68
2022-12-08T03:17:29.435Z,10.40
2022-12-08T03:20:01.487Z,10.05
2022-12-08T03:22:32.801Z,10.13
2022-12-08T03:25:00.511Z,10.50
2022-12-08T03:27:30.359Z,10.23
2022-12-08T03:29:58.897Z,11.18
2022-12-08T03:32:47.947Z,11.32
2022-12-08T03:35:20.868Z,10.50
2022-12-08T03:37:47.875Z,11.02
2022-12-08T03:40:18.056Z,10.98
2022-12-08T03:42:45.058Z,11.27
2022-12-08T03:45:12.406Z,10.07
2022-12-08T03:47:41.920Z,10.50
2022-12-08T03:50:13.762Z,9.65
2022-12-08T03:52:45.262Z,11.77
2022-12-08T03:55:12.603Z,10.70
2022-12-08T03:57:41.740Z,11.50
2022-12-08T04:00:15.875Z,13.27
2022-12-08T04:02:45.370Z,12.02
2022-12-08T04:05:12.372Z,11.65
2022-12-08T04:07:41.560Z,11.73
2022-12-08T04:10:09.297Z,10.90
2022-12-08T04:12:36.258Z,11.60
2022-12-08T04:15:03.442Z,11.30
2022-12-08T04:22:31.907Z,11.60
2022-12-08T04:24:59.033Z,12.13
2022-12-08T04:27:26.048Z,13.05
2022-12-08T04:29:53.059Z,12.02
2022-12-08T04:32:19.924Z,11.32
2022-12-08T04:34:49.038Z,11.70
2022-12-08T04:37:16.034Z,12.35
2022-12-08T04:39:43.067Z,11.75
2022-12-08T04:42:09.936Z,10.70
2022-12-08T04:44:36.974Z,10.40
2022-12-08T04:47:03.945Z,9.93
2022-12-08T04:49:33.073Z,11.05
2022-12-08T04:52:02.111Z,10.73
2022-12-08T04:54:29.039Z,10.93
2022-12-08T04:56:55.930Z,11.48
2022-12-08T04:59:25.394Z,11.43
2022-12-08T05:01:54.633Z,11.55
2022-12-08T05:04:22.366Z,12.02
2022-12-08T05:06:51.632Z,12.32
2022-12-08T05:09:18.652Z,11.38
2022-12-08T05:11:49.091Z,11.15
2022-12-08T05:14:19.791Z,11.35
2022-12-08T05:16:47.483Z,10.07
2022-12-08T05:19:15.687Z,11.23
2022-12-08T05:21:45.369Z,11.35
2022-12-08T05:24:12.518Z,10.32
2022-12-08T05:26:39.469Z,11.25
2022-12-08T05:29:08.764Z,11.80
2022-12-08T05:31:40.003Z,10.90
2022-12-08T05:34:07.062Z,13.50
2022-12-08T05:36:36.220Z,12.13
2022-12-08T05:39:05.580Z,12.90
2022-12-08T05:41:32.497Z,10.80
2022-12-08T05:43:59.441Z,12.00
2022-12-08T05:46:28.723Z,11.32
2022-12-08T05:48:55.700Z,11.02
2022-12-08T05:51:24.117Z,10.80
2022-12-08T05:53:54.019Z,10.40
2022-12-08T05:56:21.955Z,10.68
2022-12-08T05:58:49.499Z,10.70
2022-12-08T06:01:23.986Z,10.95
2022-12-08T06:03:54.114Z,11.55
2022-12-08T06:06:21.883Z,12.27
2022-12-08T06:08:48.975Z,12.18
2022-12-08T06:11:30.974Z,12.63
2022-12-08T06:14:08.460Z,12.45
2022-12-08T06:16:44.990Z,11.68
2022-12-08T06:19:15.672Z,11.93
2022-12-08T06:21:47.101Z,11.27
2022-12-08T06:24:16.410Z,12.48
2022-12-08T06:26:43.437Z,11.85
2022-12-08T06:29:10.338Z,13.68
2022-12-08T06:31:37.383Z,12.85
2022-12-08T06:34:06.699Z,13.07
2022-12-08T06:39:02.129Z,10.77
2022-12-08T06:43:57.418Z,10.82
2022-12-08T06:46:24.879Z,11.35
2022-12-08T06:48:52.039Z,13.20
2022-12-08T06:53:51.196Z,12.38
2022-12-08T06:56:20.049Z,11.75
2022-12-08T06:58:52.752Z,14.63
2022-12-08T07:01:26.059Z,14.95
2022-12-08T07:03:53.083Z,16.70
2022-12-08T07:06:23.228Z,16.58
2022-12-08T07:08:53.350Z,14.82
2022-12-08T07:11:22.404Z,16.67
2022-12-08T07:13:50.394Z,15.30
2022-12-08T07:16:17.405Z,14.90
2022-12-08T07:18:49.191Z,11.98
2022-12-08T07:21:17.422Z,13.18
2022-12-08T07:23:54.393Z,13.07
2022-12-08T07:26:27.105Z,12.98
2022-12-08T07:28:54.483Z,14.48
2022-12-08T07:31:25.525Z,13.48
2022-12-08T07:33:53.544Z,15.25
2022-12-08T07:36:20.907Z,16.65
2022-12-08T07:38:49.228Z,16.45
2022-12-08T07:41:18.537Z,16.08
2022-12-08T07:43:48.510Z,18.27
2022-12-08T07:46:19.448Z,18.77
2022-12-08T07:48:46.906Z,18.10
2022-12-08T07:51:16.947Z,19.77
2022-12-08T07:53:53.456Z,18.10
2022-12-08T07:56:24.269Z,15.32
2022-12-08T07:58:51.667Z,16.20
2022-12-08T08:01:29.574Z,15.65
2022-12-08T08:04:05.550Z,16.35
2022-12-08T08:06:37.970Z,17.23
2022-12-08T08:09:08.876Z,18.30
2022-12-08T08:11:36.590Z,15.48
2022-12-08T08:14:08.064Z,16.73
2022-12-08T08:16:46.836Z,15.52
2022-12-08T08:19:14.019Z,15.38
2022-12-08T08:21:45.975Z,13.55
2022-12-08T08:24:15.810Z,12.57
2022-12-08T08:26:42.909Z,11.68
2022-12-08T08:31:37.066Z,11.90
2022-12-08T08:34:06.377Z,11.77
2022-12-08T08:36:39.752Z,11.55
2022-12-08T08:39:08.681Z,12.98
2022-12-08T08:41:36.196Z,12.85
2022-12-08T08:44:05.636Z,12.13
2022-12-08T08:46:32.872Z,13.23
2022-12-08T08:51:27.460Z,13.48
2022-12-08T08:53:54.415Z,13.30
2022-12-08T08:56:21.472Z,12.80
2022-12-08T08:58:49.578Z,12.90
2022-12-08T09:01:26.326Z,11.63
2022-12-08T09:03:56.356Z,11.65
2022-12-08T09:06:24.317Z,11.68
2022-12-08T09:08:51.490Z,11.57
2022-12-08T09:11:23.417Z,10.52
2022-12-08T09:13:55.806Z,10.90
2022-12-08T09:16:26.354Z,9.95
2022-12-08T09:18:56.854Z,13.68
2022-12-08T09:23:59.910Z,10.40
2022-12-08T09:26:28.115Z,10.45
2022-12-08T09:28:56.729Z,9.00
2022-12-08T09:31:24.715Z,10.98
2022-12-08T09:33:56.614Z,10.27
2022-12-08T09:36:23.672Z,9.60
2022-12-08T09:38:53.557Z,10.60
2022-12-08T09:41:48.409Z,9.93
2022-12-08T09:44:39.283Z,9.65
2022-12-08T09:47:16.818Z,10.70
2022-12-08T09:49:51.834Z,10.73
2022-12-08T09:52:30.092Z,11.75
2022-12-08T09:55:11.965Z,10.93
2022-12-08T09:57:38.964Z,10.75
2022-12-08T10:00:07.777Z,10.15
2022-12-08T10:02:35.155Z,9.98
2022-12-08T10:05:05.036Z,9.50
2022-12-08T10:07:42.463Z,9.68
2022-12-08T10:10:14.698Z,9.75
2022-12-08T10:13:04.706Z,9.57
2022-12-08T10:15:40.940Z,9.95
2022-12-08T10:18:16.952Z,9.43
2022-12-08T10:20:47.659Z,8.80
2022-12-08T10:23:33.299Z,9.85
2022-12-08T10:26:16.107Z,10.13
2022-12-08T10:28:45.424Z,8.85
2022-12-08T10:31:24.786Z,9.18
2022-12-08T10:34:14.952Z,8.55
2022-12-08T10:36:45.116Z,9.43
2022-12-08T10:39:30.897Z,9.48
2022-12-08T10:42:06.989Z,9.13
2022-12-08T10:44:38.458Z,9.00
2022-12-08T10:47:13.371Z,8.82
2022-12-08T10:49:42.791Z,9.25
2022-12-08T10:52:27.757Z,10.45
2022-12-08T10:54:54.907Z,11.00
2022-12-08T10:57:23.977Z,10.52
2022-12-08T10:59:56.127Z,8.88
2022-12-08T11:02:23.856Z,7.90
2022-12-08T11:05:01.284Z,7.68
2022-12-08T11:09:59.155Z,6.63
2022-12-08T11:12:31.247Z,7.00
2022-12-08T11:15:03.193Z,6.20
2022-12-08T11:17:40.617Z,5.72
2022-12-08T11:20:10.426Z,5.75
2022-12-08T11:22:42.859Z,5.35
2022-12-08T11:25:19.644Z,5.30
2022-12-08T11:27:49.413Z,5.15
2022-12-08T11:30:22.848Z,5.03
2022-12-08T11:32:58.638Z,5.07
2022-12-08T11:35:37.943Z,5.03
2022-12-08T11:38:21.062Z,4.40
2022-12-08T11:40:55.176Z,4.68
2022-12-08T11:43:34.116Z,4.57
2022-12-08T11:46:28.581Z,4.60
2022-12-08T11:49:07.239Z,5.00
2022-12-08T11:51:53.162Z,4.63
2022-12-08T11:54:36.373Z,4.85
2022-12-08T11:57:06.760Z,5.18
2022-12-08T11:59:38.414Z,4.85
2022-12-08T12:02:13.310Z,4.60
2022-12-08T12:04:46.378Z,4.10
2022-12-08T12:07:35.189Z,3.70
2022-12-08T12:10:23.275Z,4.07
2022-12-08T12:13:20.045Z,4.13
2022-12-08T12:18:45.210Z,4.55
2022-12-08T12:21:22.066Z,4.95
2022-12-08T12:24:01.370Z,4.72
2022-12-08T12:26:32.847Z,4.78
2022-12-08T12:29:08.696Z,4.60
2022-12-08T12:31:41.615Z,4.28
2022-12-08T12:34:21.148Z,4.30
2022-12-08T12:36:58.605Z,4.55
2022-12-08T12:39:29.361Z,4.40
2022-12-08T12:42:01.887Z,7.47
2022-12-08T12:44:30.989Z,6.05
2022-12-08T12:47:03.063Z,4.90
2022-12-08T12:49:50.344Z,5.05
2022-12-08T12:52:19.704Z,4.55
2022-12-08T12:54:49.740Z,4.43
2022-12-08T12:57:19.770Z,4.45
2022-12-08T12:59:55.662Z,4.45
2022-12-08T13:02:43.685Z,5.13
2022-12-08T13:05:18.375Z,4.18
2022-12-08T13:07:50.506Z,4.53
2022-12-08T13:10:26.912Z,3.95
2022-12-08T13:13:12.683Z,4.55
2022-12-08T13:15:47.119Z,4.07
2022-12-08T13:18:39.311Z,4.43
2022-12-08T13:21:15.283Z,4.78
2022-12-08T13:23:43.088Z,4.85
2022-12-08T13:26:22.074Z,4.45
2022-12-08T13:29:08.944Z,5.15
2022-12-08T13:31:50.535Z,4.75
2022-12-08T13:34:45.537Z,4.32
2022-12-08T13:37:13.494Z,4.82
2022-12-08T13:39:42.609Z,5.10
2022-12-08T13:42:12.567Z,6.03
2022-12-08T13:45:19.724Z,4.97
2022-12-08T13:57:10.784Z,4.97
2022-12-08T13:59:45.023Z,4.80
2022-12-08T14:02:33.208Z,4.53
2022-12-08T14:07:53.196Z,4.70
2022-12-08T14:10:24.761Z,4.75
2022-12-08T14:13:06.634Z,5.72
2022-12-08T14:15:38.256Z,8.38
2022-12-08T14:18:21.172Z,5.38
2022-12-08T14:21:21.624Z,5.15
2022-12-08T14:23:51.910Z,5.35
2022-12-08T14:26:21.129Z,5.10
2022-12-08T14:28:50.657Z,5.28
2022-12-08T14:31:20.779Z,5.45
2022-12-08T14:33:53.243Z,5.18
2022-12-08T14:36:23.428Z,6.50
2022-12-08T14:38:54.461Z,6.80
2022-12-08T14:41:31.745Z,5.72
2022-12-08T14:44:02.841Z,6.00
2022-12-08T14:46:31.938Z,7.25
2022-12-08T14:49:04.363Z,6.95
2022-12-08T14:51:32.763Z,8.18
2022-12-08T14:54:07.143Z,11.65
2022-12-08T14:56:38.493Z,10.18
2022-12-08T14:59:30.488Z,8.38
2022-12-08T15:02:09.599Z,8.60
2022-12-08T15:04:45.630Z,6.38
2022-12-08T15:07:18.862Z,6.05
2022-12-08T15:09:50.831Z,6.30
2022-12-08T15:12:27.356Z,6.40
2022-12-08T15:15:23.743Z,6.13
2022-12-08T15:18:16.155Z,5.63
2022-12-08T15:20:47.169Z,5.40
2022-12-08T15:23:22.867Z,5.50
2022-12-08T15:25:50.380Z,5.60
2022-12-08T15:28:26.658Z,5.15
2022-12-08T15:30:57.726Z,5.53
2022-12-08T15:33:25.090Z,5.57
2022-12-08T15:35:52.818Z,6.30
2022-12-08T15:38:28.798Z,5.60
2022-12-08T15:41:01.210Z,7.85
2022-12-08T15:43:30.651Z,6.32
2022-12-08T15:45:59.877Z,7.45
2022-12-08T15:48:30.497Z,6.90
2022-12-08T15:50:57.952Z,6.60
2022-12-08T16:01:26.914Z,18.90
2022-12-08T16:09:41.293Z,6.95
2022-12-08T16:13:27.329Z,6.72
2022-12-08T16:18:26.810Z,7.03
2022-12-08T16:23:46.923Z,5.88
2022-12-08T16:26:31.819Z,6.75
2022-12-08T16:29:07.897Z,7.65
2022-12-08T16:31:35.157Z,20.00
2022-12-08T16:34:02.317Z,7.57
2022-12-08T16:36:29.284Z,7.15
2022-12-08T16:38:58.507Z,6.65
2022-12-08T16:41:48.378Z,7.35
2022-12-08T16:44:15.393Z,6.18
2022-12-08T16:46:42.380Z,5.60
2022-12-08T16:49:12.339Z,5.35
2022-12-08T16:51:44.746Z,5.88
2022-12-08T16:54:12.206Z,6.03
2022-12-08T16:56:39.336Z,8.45
2022-12-08T16:59:11.329Z,6.85
2022-12-08T17:01:38.453Z,5.53
2022-12-08T17:04:30.321Z,5.32
2022-12-08T17:06:58.236Z,5.22
2022-12-08T17:09:30.664Z,6.32
2022-12-08T17:12:03.502Z,6.47
2022-12-08T17:14:34.854Z,6.07
2022-12-08T17:17:04.434Z,6.70
2022-12-08T17:19:31.829Z,6.85
2022-12-08T17:26:58.345Z,8.20
2022-12-08T17:29:25.391Z,8.90
2022-12-08T17:31:52.414Z,8.73
2022-12-08T17:34:21.976Z,9.07
2022-12-08T17:36:51.677Z,7.20
2022-12-08T17:39:21.339Z,7.85
2022-12-08T17:41:48.382Z,6.88
2022-12-08T17:44:18.384Z,7.60
2022-12-08T17:46:52.179Z,7.18
2022-12-08T17:49:24.062Z,6.82
2022-12-08T17:51:54.211Z,6.32
2022-12-08T17:54:21.917Z,6.40
2022-12-08T17:56:49.068Z,5.47
2022-12-08T17:59:16.264Z,5.25
2022-12-08T18:04:15.798Z,4.28
2022-12-08T18:06:47.756Z,4.50
2022-12-08T18:09:15.636Z,4.45
2022-12-08T18:11:43.715Z,4.68
2022-12-08T18:14:14.338Z,4.50
2022-12-08T18:16:48.920Z,4.60
2022-12-08T18:19:18.297Z,4.70
2022-12-08T18:21:45.435Z,6.63
2022-12-08T18:24:20.853Z,6.78
2022-12-08T18:26:52.167Z,5.60
2022-12-08T18:29:20.940Z,5.82
2022-12-08T18:31:53.361Z,6.00
2022-12-08T18:34:20.748Z,6.72
2022-12-08T18:36:47.994Z,6.85
2022-12-08T18:39:21.065Z,15.02
2022-12-08T18:41:48.069Z,10.32
2022-12-08T18:44:18.033Z,7.30
2022-12-08T18:46:45.077Z,7.55
2022-12-08T18:49:17.175Z,6.55
2022-12-08T18:51:46.405Z,7.15
2022-12-08T18:54:16.458Z,8.18
2022-12-08T18:56:43.492Z,6.93
2022-12-08T18:59:12.321Z,7.80
2022-12-08T19:01:40.351Z,6.65
2022-12-08T19:06:57.640Z,8.45
2022-12-08T19:09:29.078Z,9.52
2022-12-08T19:11:59.830Z,9.20
2022-12-08T19:14:28.601Z,8.10
2022-12-08T19:17:00.840Z,8.60
2022-12-08T19:19:29.624Z,8.52
2022-12-08T19:21:57.219Z,9.15
2022-12-08T19:24:26.799Z,7.65
2022-12-08T19:36:43.161Z,10.27
2022-12-08T19:39:39.278Z,10.63
2022-12-08T19:42:35.290Z,10.27
2022-12-08T19:45:12.666Z,9.95
2022-12-08T19:47:42.699Z,9.55
2022-12-08T19:50:30.473Z,10.27
2022-12-08T19:53:02.397Z,10.07
2022-12-08T19:55:29.802Z,9.20
2022-12-08T20:00:26.511Z,9.93
2022-12-08T20:02:57.579Z,10.30
2022-12-08T20:05:28.161Z,10.45
2022-12-08T20:07:56.189Z,10.73
2022-12-08T20:10:32.264Z,10.85
2022-12-08T20:13:19.053Z,10.43
2022-12-08T20:15:46.641Z,11.82
2022-12-08T20:18:15.092Z,13.02
2022-12-08T20:20:49.034Z,11.73
2022-12-08T20:23:17.202Z,11.57
2022-12-08T20:25:46.237Z,10.75
2022-12-08T20:28:13.576Z,10.80
2022-12-08T20:33:13.638Z,11.68
2022-12-08T20:35:44.071Z,9.35
2022-12-08T20:38:13.477Z,8.75
2022-12-08T20:40:45.786Z,8.80
2022-12-08T20:43:15.397Z,8.18
2022-12-08T20:45:42.353Z,8.10
2022-12-08T20:48:09.579Z,7.20
2022-12-08T20:53:03.930Z,7.20
2022-12-08T20:55:31.275Z,6.70
2022-12-08T21:00:27.271Z,6.25
2022-12-08T21:02:56.769Z,8.80
2022-12-08T21:05:24.509Z,7.13
2022-12-08T21:07:54.094Z,7.50
2022-12-08T21:12:48.240Z,5.68
2022-12-08T21:15:15.541Z,5.57
2022-12-08T21:17:47.679Z,6.50
2022-12-08T21:20:14.832Z,7.25
2022-12-08T21:22:48.795Z,8.10
2022-12-08T21:25:16.010Z,7.80
2022-12-08T21:30:11.468Z,7.85
2022-12-08T21:32:40.078Z,9.38
2022-12-08T21:35:07.996Z,9.57
2022-12-08T21:37:37.421Z,8.52
2022-12-08T21:40:10.374Z,9.27
2022-12-08T21:42:43.557Z,8.45
2022-12-08T21:45:16.473Z,10.90
2022-12-08T21:47:44.406Z,9.38
2022-12-08T21:50:12.562Z,10.27
2022-12-08T21:52:45.089Z,9.88
2022-12-08T21:55:15.356Z,14.77
2022-12-08T21:57:42.912Z,11.18
2022-12-08T22:00:15.365Z,9.10
2022-12-08T22:02:43.077Z,8.45
2022-12-08T22:05:11.139Z,8.50
2022-12-08T22:07:39.985Z,8.25
2022-12-08T22:10:11.053Z,7.70
2022-12-08T22:12:40.712Z,8.25
2022-12-08T22:15:09.175Z,8.95
2022-12-08T22:17:38.634Z,9.40
2022-12-08T22:20:07.921Z,9.77
2022-12-08T22:22:37.732Z,9.98
2022-12-08T22:25:11.915Z,10.02
2022-12-08T22:27:48.723Z,11.52
2022-12-08T22:30:18.459Z,10.63
2022-12-08T22:32:45.476Z,11.68
2022-12-08T22:35:14.977Z,9.57
2022-12-08T22:37:41.941Z,12.50
2022-12-08T22:40:11.994Z,15.30
2022-12-08T22:42:39.104Z,11.45
2022-12-08T22:45:09.521Z,9.57
2022-12-08T22:47:38.844Z,10.10
2022-12-08T22:50:07.071Z,9.85
2022-12-08T22:52:34.608Z,10.50
2022-12-08T22:55:04.386Z,9.45
2022-12-08T22:57:31.543Z,10.07
2022-12-08T22:59:58.570Z,9.63
2022-12-08T23:02:27.882Z,9.57
2022-12-08T23:05:00.566Z,12.10
2022-12-08T23:07:27.686Z,11.25
2022-12-08T23:09:54.675Z,10.85
2022-12-08T23:12:24.173Z,11.70
2022-12-08T23:14:51.118Z,10.98
2022-12-08T23:17:22.877Z,10.88
2022-12-08T23:19:50.061Z,9.07
2022-12-08T23:22:19.163Z,8.57
2022-12-08T23:24:46.130Z,8.73
2022-12-08T23:27:17.839Z,8.23
2022-12-08T23:29:45.057Z,7.53
2022-12-08T23:32:14.413Z,7.28
2022-12-08T23:34:41.449Z,7.57
2022-12-08T23:37:08.387Z,6.70
2022-12-08T23:39:35.392Z,7.00
2022-12-08T23:42:07.197Z,7.05
2022-12-08T23:44:38.566Z,8.18
2022-12-08T23:47:05.749Z,7.95
2022-12-08T23:52:00.622Z,8.23
2022-12-08T23:54:30.170Z,8.45
2022-12-08T23:56:57.373Z,8.23
